Time;durP1;ratioP1;P1;durP2;ratioP2;P2;SDS_P1;SDS_P2;PMS_P1;PMS_P2;Temp;Humidity;BMP_temperature;BMP_pressure;BME280_temperature;BME280_humidity;BME280_pressure;Samples;Min_cycle;Max_cycle;Signal;HPM_P1;HPM_P2
2022/04/28 00:00:59;;;;;;;6.82;4.80;;;15.10;79.50;;;;;;4992626;28;20038;-77
2022/04/28 00:03:26;;;;;;;6.97;5.03;;;15.00;79.30;;;;;;4995609;28;20030;-77
2022/04/28 00:05:52;;;;;;;6.85;4.70;;;15.00;79.50;;;;;;4977764;28;20018;-77
2022/04/28 00:08:18;;;;;;;6.70;4.70;;;15.00;79.60;;;;;;4995583;28;20060;-77
2022/04/28 00:10:43;;;;;;;7.40;5.15;;;15.00;79.60;;;;;;4994917;28;20054;-77
2022/04/28 00:13:10;;;;;;;6.65;4.75;;;14.90;79.70;;;;;;4994068;28;20062;-77
2022/04/28 00:15:35;;;;;;;7.18;4.60;;;14.90;79.80;;;;;;4995041;28;20030;-77
2022/04/28 00:18:01;;;;;;;6.75;4.55;;;14.90;79.90;;;;;;4995377;28;20026;-76
2022/04/28 00:20:27;;;;;;;7.00;4.63;;;14.90;80.10;;;;;;4994104;28;20026;-77
2022/04/28 00:22:52;;;;;;;7.38;4.35;;;14.90;80.20;;;;;;4996460;28;20037;-77
2022/04/28 00:25:18;;;;;;;6.80;4.80;;;14.90;80.10;;;;;;4994725;28;20027;-76
2022/04/28 00:27:43;;;;;;;6.85;4.82;;;14.80;80.10;;;;;;4994419;28;20026;-77
2022/04/28 00:30:09;;;;;;;6.10;4.20;;;14.80;80.60;;;;;;4996757;28;20026;-77
2022/04/28 00:32:35;;;;;;;7.00;4.50;;;14.80;80.20;;;;;;4977727;28;20018;-77
2022/04/28 00:35:01;;;;;;;6.60;4.60;;;14.80;80.20;;;;;;4995311;28;20147;-75
2022/04/28 00:37:27;;;;;;;6.63;4.57;;;14.80;80.20;;;;;;4994977;28;20030;-77
2022/04/28 00:39:53;;;;;;;6.97;5.10;;;14.80;80.10;;;;;;4994318;28;20066;-76
2022/04/28 00:42:20;;;;;;;7.15;4.97;;;14.80;80.20;;;;;;4994485;28;20030;-77
2022/04/28 00:44:46;;;;;;;7.10;4.97;;;14.80;80.10;;;;;;4996065;28;20033;-77
2022/04/28 00:47:12;;;;;;;6.57;4.70;;;14.80;80.20;;;;;;4995583;28;20018;-76
2022/04/28 00:52:23;;;;;;;7.45;4.82;;;14.80;80.10;;;;;;4994444;28;20030;-75
2022/04/28 00:54:54;;;;;;;6.68;4.68;;;14.80;80.20;;;;;;4992978;28;20177;-77
2022/04/28 00:57:20;;;;;;;6.60;4.53;;;14.80;80.10;;;;;;4992731;28;20490;-74
2022/04/28 00:59:47;;;;;;;6.43;4.25;;;14.80;80.10;;;;;;4992795;28;20030;-75
2022/04/28 01:02:13;;;;;;;6.20;4.50;;;14.80;80.20;;;;;;4993970;28;20057;-75
2022/04/28 01:04:39;;;;;;;7.22;4.63;;;14.80;80.50;;;;;;4992751;28;20489;-75
2022/04/28 01:07:07;;;;;;;6.00;4.20;;;14.80;80.20;;;;;;4994065;28;20018;-75
2022/04/28 01:09:37;;;;;;;6.35;4.32;;;14.90;80.10;;;;;;4993545;28;20528;-77
2022/04/28 01:12:06;;;;;;;6.95;4.70;;;14.90;80.00;;;;;;4990184;28;20026;-76
2022/04/28 01:14:31;;;;;;;6.68;4.32;;;14.90;79.90;;;;;;4972974;28;20070;-74
2022/04/28 01:16:59;;;;;;;6.57;3.97;;;14.90;79.70;;;;;;4975832;28;20637;-76
2022/04/28 01:19:24;;;;;;;6.25;4.40;;;15.00;79.80;;;;;;4992274;28;20466;-76
2022/04/28 01:21:52;;;;;;;7.43;4.40;;;14.90;79.60;;;;;;4991889;28;20117;-76
2022/04/28 01:24:18;;;;;;;7.07;4.43;;;15.00;79.60;;;;;;4975665;28;20034;-75
2022/04/28 01:26:45;;;;;;;7.18;4.63;;;14.90;79.60;;;;;;4993298;28;20501;-75
2022/04/28 01:29:10;;;;;;;7.55;4.70;;;14.90;79.70;;;;;;4975730;28;20022;-77
2022/04/28 01:31:36;;;;;;;6.90;4.38;;;14.90;79.80;;;;;;4993197;28;20029;-75
2022/04/28 01:34:01;;;;;;;6.82;4.63;;;14.90;79.90;;;;;;4992485;28;20034;-76
2022/04/28 01:36:28;;;;;;;6.85;4.30;;;14.80;79.90;;;;;;5030414;22;20182;-78
2022/04/28 01:38:53;;;;;;;5.57;3.78;;;14.80;80.00;;;;;;5035705;28;20477;-77
2022/04/28 01:41:19;;;;;;;6.80;4.68;;;14.80;80.10;;;;;;5035164;28;20036;-77
2022/04/28 01:43:45;;;;;;;6.63;4.68;;;14.80;80.20;;;;;;5034416;28;20068;-77
2022/04/28 01:46:11;;;;;;;6.40;4.45;;;14.80;80.20;;;;;;5045068;28;20448;-79
2022/04/28 01:48:37;;;;;;;7.35;4.80;;;14.80;80.30;;;;;;5015230;28;20441;-77
2022/04/28 01:56:31;;;;;;;7.03;4.60;;;14.80;80.30;;;;;;5018370;28;20036;-77
2022/04/28 01:58:56;;;;;;;7.22;4.85;;;14.80;80.30;;;;;;5030526;28;20552;-78
2022/04/28 02:01:22;;;;;;;7.18;4.82;;;14.80;80.30;;;;;;5052089;28;20133;-77
2022/04/28 02:03:48;;;;;;;6.63;4.63;;;14.70;80.30;;;;;;5016624;28;20026;-77
2022/04/28 02:06:14;;;;;;;7.93;4.97;;;14.80;80.30;;;;;;5031430;28;20427;-78
2022/04/28 02:08:39;;;;;;;6.10;4.40;;;14.80;80.30;;;;;;5045075;28;20064;-77
2022/04/28 02:11:05;;;;;;;7.53;4.93;;;14.70;80.10;;;;;;5051416;28;20021;-77
2022/04/28 02:13:31;;;;;;;6.70;4.43;;;14.80;80.10;;;;;;5051011;28;20030;-77
2022/04/28 02:15:56;;;;;;;7.65;4.68;;;14.70;80.20;;;;;;5055871;28;20035;-78
2022/04/28 02:18:22;;;;;;;6.60;4.28;;;14.80;80.10;;;;;;5043703;28;20552;-79
2022/04/28 02:20:47;;;;;;;7.45;4.90;;;14.70;80.10;;;;;;5036876;28;20030;-79
2022/04/28 02:23:16;;;;;;;7.10;4.43;;;14.70;80.20;;;;;;5035657;28;20053;-78
2022/04/28 02:25:41;;;;;;;6.63;4.70;;;14.80;80.30;;;;;;5035248;28;20026;-79
2022/04/28 02:28:07;;;;;;;6.07;3.83;;;14.70;80.20;;;;;;5020470;28;20645;-78
2022/04/28 02:30:32;;;;;;;6.93;4.38;;;14.80;80.20;;;;;;5034786;28;20163;-79
2022/04/28 02:33:10;;;;;;;5.90;4.15;;;14.80;80.10;;;;;;5033862;28;20021;-78
2022/04/28 02:35:39;;;;;;;6.10;4.28;;;14.80;80.00;;;;;;5018592;28;20397;-77
2022/04/28 02:38:05;;;;;;;6.28;4.30;;;14.90;79.90;;;;;;5033085;28;20026;-77
2022/04/28 02:40:34;;;;;;;6.20;4.07;;;14.90;79.80;;;;;;5032505;28;20072;-77
2022/04/28 02:42:59;;;;;;;6.97;4.55;;;14.90;79.70;;;;;;5030813;28;20026;-77
2022/04/28 02:45:26;;;;;;;6.70;4.60;;;14.90;79.60;;;;;;5031197;28;20552;-76
2022/04/28 02:47:51;;;;;;;6.40;4.60;;;14.90;79.70;;;;;;5017895;28;20033;-77
2022/04/28 02:50:17;;;;;;;7.10;4.57;;;14.80;79.70;;;;;;5050133;28;20056;-76
2022/04/28 02:52:43;;;;;;;6.05;4.28;;;14.80;79.80;;;;;;5051789;28;20026;-77
2022/04/28 02:55:09;;;;;;;6.80;4.32;;;14.80;79.90;;;;;;5045312;28;20030;-77
2022/04/28 02:57:35;;;;;;;6.45;4.45;;;14.80;80.00;;;;;;5024914;28;20037;-78
2022/04/28 03:00:04;;;;;;;6.75;4.40;;;14.80;80.10;;;;;;5031877;28;20026;-76
2022/04/28 03:02:30;;;;;;;7.22;4.60;;;14.80;80.30;;;;;;5039238;28;20049;-76
2022/04/28 03:04:56;;;;;;;7.10;4.32;;;14.80;80.30;;;;;;5051795;28;20435;-78
2022/04/28 03:12:50;;;;;;;6.63;4.35;;;14.70;80.30;;;;;;5015726;28;20441;-77
2022/04/28 03:15:15;;;;;;;6.55;4.38;;;14.70;80.30;;;;;;5031284;28;20030;-77
2022/04/28 03:17:44;;;;;;;7.10;4.47;;;14.70;80.30;;;;;;5016753;28;20022;-78
2022/04/28 03:20:10;;;;;;;6.63;4.22;;;14.70;80.30;;;;;;5039306;28;20025;-77
2022/04/28 03:22:36;;;;;;;8.10;4.90;;;14.70;80.30;;;;;;5055498;28;20480;-80
2022/04/28 03:25:02;;;;;;;6.00;3.80;;;14.70;80.30;;;;;;5055570;28;20025;-77
2022/04/28 03:27:30;;;;;;;6.53;4.35;;;14.70;80.20;;;;;;5052445;28;20040;-76
2022/04/28 03:29:56;;;;;;;6.22;4.35;;;14.70;80.20;;;;;;5035198;28;20021;-76
2022/04/28 03:32:22;;;;;;;6.53;4.20;;;14.70;80.10;;;;;;5050508;28;20044;-76
2022/04/28 03:34:47;;;;;;;6.18;3.97;;;14.70;80.00;;;;;;5053602;28;20033;-76
2022/04/28 03:37:13;;;;;;;6.45;4.30;;;14.60;80.00;;;;;;5043939;28;20033;-76
2022/04/28 03:39:38;;;;;;;6.97;4.40;;;14.70;80.00;;;;;;5033513;28;20030;-76
2022/04/28 03:42:06;;;;;;;6.50;4.22;;;14.70;80.10;;;;;;5034466;28;20036;-78
2022/04/28 03:44:32;;;;;;;7.07;4.72;;;14.70;80.30;;;;;;5051011;28;20455;-76
2022/04/28 03:46:57;;;;;;;6.90;4.20;;;14.70;80.20;;;;;;5049820;28;20105;-76
2022/04/28 03:49:23;;;;;;;6.90;4.88;;;14.70;80.20;;;;;;5052600;28;20025;-76
2022/04/28 03:51:49;;;;;;;6.75;4.13;;;14.70;80.20;;;;;;5053047;28;20033;-77
2022/04/28 03:54:14;;;;;;;6.05;4.32;;;14.80;80.10;;;;;;5052158;28;20026;-77
2022/04/28 03:56:40;;;;;;;6.60;4.28;;;14.80;80.00;;;;;;5033597;28;20107;-79
2022/04/28 03:59:05;;;;;;;5.75;4.10;;;14.80;79.90;;;;;;5033516;28;20120;-76
2022/04/28 04:01:31;;;;;;;6.38;4.07;;;14.80;79.80;;;;;;5032182;28;20094;-76
2022/04/28 04:03:57;;;;;;;6.50;4.30;;;14.80;79.60;;;;;;5031504;28;20061;-76
2022/04/28 04:06:22;;;;;;;6.63;4.10;;;14.80;79.70;;;;;;5019023;28;20014;-77
2022/04/28 04:08:49;;;;;;;6.43;4.05;;;14.80;79.80;;;;;;5030022;28;20049;-75
2022/04/28 04:11:15;;;;;;;7.13;4.30;;;14.80;79.60;;;;;;5019308;28;20025;-77
2022/04/28 04:13:40;;;;;;;6.50;4.20;;;14.70;79.60;;;;;;5033956;28;20022;-77
2022/04/28 04:16:10;;;;;;;6.15;4.10;;;14.80;79.90;;;;;;5033581;28;20057;-77
2022/04/28 04:18:35;;;;;;;5.88;4.00;;;14.70;80.00;;;;;;5019991;28;20018;-77
2022/04/28 04:21:01;;;;;;;6.90;4.40;;;14.70;80.10;;;;;;5024078;28;20374;-76
2022/04/28 04:23:26;;;;;;;6.63;4.53;;;14.70;80.20;;;;;;5033378;28;20022;-77
2022/04/28 04:25:52;;;;;;;6.07;4.03;;;14.70;80.60;;;;;;5021613;28;20090;-76
2022/04/28 04:28:17;;;;;;;7.07;4.70;;;14.70;80.30;;;;;;5034929;28;20030;-75
2022/04/28 04:33:27;;;;;;;6.57;4.18;;;14.70;80.10;;;;;;5033992;28;20719;-77
2022/04/28 04:35:53;;;;;;;6.65;4.38;;;14.70;80.30;;;;;;5037899;28;20057;-77
2022/04/28 04:38:19;;;;;;;6.35;4.25;;;14.60;80.20;;;;;;5030211;28;20022;-77
2022/04/28 04:40:44;;;;;;;6.47;4.30;;;14.60;80.20;;;;;;5041790;28;20026;-77
2022/04/28 04:43:13;;;;;;;7.32;4.15;;;14.70;80.10;;;;;;5035466;28;20093;-79
2022/04/28 04:45:42;;;;;;;6.63;4.60;;;14.70;80.10;;;;;;5035971;28;20030;-78
2022/04/28 04:48:09;;;;;;;6.93;4.32;;;14.60;80.00;;;;;;5035320;28;20060;-78
2022/04/28 04:50:35;;;;;;;7.35;4.38;;;14.70;80.00;;;;;;5034449;28;20116;-77
2022/04/28 04:53:00;;;;;;;6.60;4.47;;;14.60;80.00;;;;;;5012735;28;20564;-77
2022/04/28 04:55:26;;;;;;;6.70;4.50;;;14.70;79.90;;;;;;5026713;28;20026;-77
2022/04/28 04:57:52;;;;;;;6.70;4.45;;;14.70;79.80;;;;;;5011218;28;20034;-77
2022/04/28 05:00:18;;;;;;;7.05;4.57;;;14.60;79.80;;;;;;5014470;28;20037;-77
2022/04/28 05:02:43;;;;;;;6.00;4.15;;;14.70;79.80;;;;;;5028856;28;20791;-78
2022/04/28 05:05:09;;;;;;;7.20;4.30;;;14.70;80.40;;;;;;5013982;28;20156;-79
2022/04/28 05:07:34;;;;;;;6.20;4.40;;;14.60;80.00;;;;;;5033961;28;20101;-78
2022/04/28 05:10:00;;;;;;;6.68;4.68;;;14.70;80.00;;;;;;5036403;28;20107;-78
2022/04/28 05:12:26;;;;;;;6.80;4.65;;;14.70;80.00;;;;;;5031235;28;20025;-78
2022/04/28 05:14:51;;;;;;;6.35;4.32;;;14.70;79.90;;;;;;5013096;28;20444;-77
2022/04/28 05:17:17;;;;;;;6.18;4.28;;;14.80;79.90;;;;;;5023636;28;20030;-78
2022/04/28 05:19:42;;;;;;;6.45;4.32;;;14.80;79.70;;;;;;5018822;28;20025;-77
2022/04/28 05:22:08;;;;;;;6.93;4.60;;;14.80;79.60;;;;;;5030932;28;20041;-76
2022/04/28 05:24:34;;;;;;;6.55;4.35;;;14.80;79.50;;;;;;5026203;28;20428;-78
2022/04/28 05:26:59;;;;;;;7.22;4.55;;;14.80;79.40;;;;;;5028706;28;20029;-77
2022/04/28 05:29:25;;;;;;;7.40;4.78;;;14.80;79.30;;;;;;5027690;28;20259;-77
2022/04/28 05:31:50;;;;;;;9.23;4.57;;;14.70;79.40;;;;;;5029929;28;20029;-77
2022/04/28 05:34:16;;;;;;;7.78;4.72;;;14.70;79.30;;;;;;5025797;28;20750;-76
2022/04/28 05:36:43;;;;;;;9.57;4.50;;;14.70;79.20;;;;;;5026320;28;20044;-77
2022/04/28 05:39:08;;;;;;;8.52;4.85;;;14.70;79.50;;;;;;5024151;28;20077;-78
2022/04/28 05:41:36;;;;;;;11.52;4.97;;;14.70;80.00;;;;;;5018649;28;20038;-79
2022/04/28 05:46:46;;;;;;;10.90;5.20;;;14.70;79.40;;;;;;5010503;28;20032;-77
2022/04/28 05:49:11;;;;;;;11.05;4.90;;;14.70;79.30;;;;;;5026283;28;20129;-77
2022/04/28 05:51:40;;;;;;;10.25;4.70;;;14.70;79.20;;;;;;5027033;28;20120;-77
2022/04/28 05:54:05;;;;;;;9.07;4.80;;;14.70;79.10;;;;;;5026961;28;20416;-76
2022/04/28 05:56:31;;;;;;;10.57;4.80;;;14.70;79.00;;;;;;5013081;28;20048;-79
2022/04/28 05:58:56;;;;;;;8.43;5.00;;;14.70;79.00;;;;;;5007590;28;20266;-77
2022/04/28 06:01:22;;;;;;;11.30;5.15;;;14.70;78.90;;;;;;5010983;28;20033;-78
2022/04/28 06:03:47;;;;;;;9.57;5.15;;;14.80;78.90;;;;;;5010894;28;20433;-77
2022/04/28 06:06:13;;;;;;;8.43;4.93;;;14.70;78.80;;;;;;5011318;28;20025;-78
2022/04/28 06:08:39;;;;;;;13.43;5.25;;;14.80;78.90;;;;;;5027082;28;20093;-78
2022/04/28 06:11:05;;;;;;;9.35;5.97;;;14.70;78.70;;;;;;5009990;28;20014;-76
2022/04/28 06:13:31;;;;;;;8.75;5.55;;;14.80;78.80;;;;;;5009211;28;20053;-78
2022/04/28 06:15:58;;;;;;;8.70;5.18;;;14.80;78.80;;;;;;5011504;28;20030;-80
2022/04/28 06:18:24;;;;;;;10.70;5.28;;;14.80;78.70;;;;;;5025878;28;20533;-78
2022/04/28 06:20:50;;;;;;;8.35;4.75;;;14.80;78.70;;;;;;5029069;28;20026;-78
2022/04/28 06:23:15;;;;;;;9.52;5.05;;;14.80;78.80;;;;;;5028598;28;20026;-77
2022/04/28 06:25:41;;;;;;;9.57;5.57;;;14.80;78.70;;;;;;5026863;28;20680;-79
2022/04/28 06:28:09;;;;;;;7.93;4.72;;;14.90;78.80;;;;;;5028886;28;20076;-76
2022/04/28 06:30:35;;;;;;;8.52;4.90;;;15.00;78.50;;;;;;5028129;28;20037;-78
2022/04/28 06:33:00;;;;;;;9.15;4.95;;;15.00;78.30;;;;;;5029366;28;20022;-78
2022/04/28 06:35:26;;;;;;;9.88;4.90;;;15.00;78.20;;;;;;5042023;28;20112;-80
2022/04/28 06:37:51;;;;;;;8.80;5.13;;;15.00;78.00;;;;;;5044570;28;20405;-79
2022/04/28 06:40:17;;;;;;;9.65;5.00;;;15.10;78.00;;;;;;5029207;28;20026;-79
2022/04/28 06:42:49;;;;;;;8.63;5.20;;;15.10;77.90;;;;;;5015911;28;20032;-77
2022/04/28 06:45:16;;;;;;;8.50;4.70;;;15.10;77.80;;;;;;5025229;28;20038;-77
2022/04/28 06:47:41;;;;;;;8.25;4.65;;;15.10;77.90;;;;;;5028397;28;20034;-77
2022/04/28 06:50:07;;;;;;;7.45;4.43;;;15.10;77.70;;;;;;5011623;28;20419;-77
2022/04/28 06:52:38;;;;;;;8.38;5.00;;;15.10;77.60;;;;;;5007541;28;20037;-77
2022/04/28 06:55:05;;;;;;;7.45;4.60;;;15.10;77.60;;;;;;5014854;28;20030;-78
2022/04/28 06:57:31;;;;;;;9.68;5.20;;;15.10;77.80;;;;;;5032806;28;20093;-78
2022/04/28 06:59:57;;;;;;;8.40;4.75;;;15.10;77.80;;;;;;5016828;28;20041;-76
2022/04/28 07:02:23;;;;;;;7.63;4.78;;;15.10;77.70;;;;;;5031803;28;20030;-77
2022/04/28 07:04:49;;;;;;;8.75;5.15;;;15.10;77.80;;;;;;5032609;28;20061;-77
2022/04/28 07:07:14;;;;;;;8.48;4.80;;;15.10;77.80;;;;;;5039836;28;20034;-77
2022/04/28 07:09:40;;;;;;;7.60;5.03;;;15.10;77.70;;;;;;5042265;28;20025;-77
2022/04/28 07:12:06;;;;;;;8.02;5.30;;;15.20;77.70;;;;;;5032089;28;20030;-77
2022/04/28 07:14:34;;;;;;;7.55;4.60;;;15.20;77.70;;;;;;5031764;28;20611;-78
2022/04/28 07:16:59;;;;;;;8.73;5.07;;;15.20;77.60;;;;;;5031482;28;20029;-78
2022/04/28 07:19:25;;;;;;;7.60;4.53;;;15.20;77.60;;;;;;5028730;28;20044;-78
2022/04/28 07:21:51;;;;;;;8.93;4.97;;;15.20;77.50;;;;;;5029810;28;20037;-77
2022/04/28 07:24:16;;;;;;;8.70;5.20;;;15.20;77.50;;;;;;5030710;28;20075;-77
2022/04/28 07:26:42;;;;;;;7.88;5.03;;;15.20;77.40;;;;;;5029088;28;20022;-77
2022/04/28 07:29:07;;;;;;;6.95;4.88;;;15.20;77.40;;;;;;5030585;28;20436;-78
2022/04/28 07:31:33;;;;;;;7.57;4.88;;;15.30;77.30;;;;;;5030680;28;20032;-78
2022/04/28 07:33:59;;;;;;;9.00;5.13;;;15.30;77.30;;;;;;5029971;28;20040;-78
2022/04/28 07:36:24;;;;;;;9.00;4.95;;;15.30;77.20;;;;;;5030214;28;20068;-79
2022/04/28 07:38:50;;;;;;;7.78;4.90;;;15.30;77.10;;;;;;5030666;28;20124;-76
2022/04/28 07:41:15;;;;;;;8.63;4.88;;;15.30;77.00;;;;;;5031065;28;20040;-78
2022/04/28 07:43:41;;;;;;;8.68;5.15;;;15.40;76.90;;;;;;5030149;28;20087;-80
2022/04/28 07:46:07;;;;;;;7.72;4.95;;;15.40;76.70;;;;;;5045420;22;20050;-74
2022/04/28 07:48:32;;;;;;;9.60;5.28;;;15.50;76.50;;;;;;5011175;28;20022;-76
2022/04/28 07:50:58;;;;;;;7.82;5.18;;;15.50;76.30;;;;;;5013352;28;20472;-76
2022/04/28 07:53:23;;;;;;;7.90;4.93;;;15.50;76.00;;;;;;5013210;28;20053;-76
2022/04/28 07:58:34;;;;;;;8.07;4.80;;;15.60;75.80;;;;;;5010394;28;20037;-74
2022/04/28 08:00:59;;;;;;;7.55;4.60;;;15.60;75.70;;;;;;5014321;28;20064;-73
2022/04/28 08:03:25;;;;;;;6.82;4.55;;;15.60;75.70;;;;;;5013667;28;20034;-74
2022/04/28 08:05:53;;;;;;;8.55;4.93;;;15.60;75.60;;;;;;5012007;28;20026;-74
2022/04/28 08:08:19;;;;;;;7.95;4.65;;;15.50;75.70;;;;;;5029447;28;20033;-74
2022/04/28 08:10:44;;;;;;;8.82;5.75;;;15.60;76.00;;;;;;5028189;28;20018;-74
2022/04/28 08:13:10;;;;;;;9.23;5.25;;;15.60;76.00;;;;;;5029203;28;20038;-75
2022/04/28 08:15:36;;;;;;;8.45;5.07;;;15.60;76.00;;;;;;5014134;28;20018;-74
2022/04/28 08:18:01;;;;;;;8.30;5.20;;;15.60;76.00;;;;;;5028822;28;20045;-74
2022/04/28 08:20:27;;;;;;;8.65;5.18;;;15.60;76.00;;;;;;5013831;28;20104;-74
2022/04/28 08:22:52;;;;;;;8.63;4.80;;;15.60;76.00;;;;;;5028848;28;20037;-74
2022/04/28 08:25:18;;;;;;;7.82;5.03;;;15.60;75.90;;;;;;5028378;28;20061;-75
2022/04/28 08:27:44;;;;;;;8.18;4.82;;;15.60;75.90;;;;;;5028839;28;20022;-74
2022/04/28 08:30:11;;;;;;;7.68;5.22;;;15.60;75.80;;;;;;5013825;28;20029;-75
2022/04/28 08:32:36;;;;;;;7.43;5.05;;;15.70;75.80;;;;;;5012100;28;20049;-74
2022/04/28 08:35:02;;;;;;;8.93;5.13;;;15.70;75.80;;;;;;5028617;28;20069;-72
2022/04/28 08:37:27;;;;;;;7.57;5.07;;;15.70;75.80;;;;;;5028880;28;20022;-74
2022/04/28 08:39:53;;;;;;;8.45;5.10;;;15.70;75.70;;;;;;5028570;28;20049;-73
2022/04/28 08:42:21;;;;;;;7.95;5.25;;;15.70;75.60;;;;;;5013391;28;20033;-75
2022/04/28 08:44:47;;;;;;;8.88;5.50;;;15.70;75.60;;;;;;5028454;28;20037;-74
2022/04/28 08:47:13;;;;;;;7.53;4.85;;;15.80;75.60;;;;;;5028019;28;20493;-73
2022/04/28 08:49:42;;;;;;;8.90;5.38;;;15.80;75.50;;;;;;5013293;28;20068;-74
2022/04/28 08:52:08;;;;;;;8.85;5.40;;;15.80;75.50;;;;;;5028069;28;20548;-76
2022/04/28 08:54:37;;;;;;;7.82;5.43;;;15.80;75.40;;;;;;5007668;28;20112;-73
2022/04/28 08:57:03;;;;;;;8.50;5.45;;;15.80;75.50;;;;;;5008164;28;20486;-74
2022/04/28 08:59:28;;;;;;;8.90;5.97;;;15.90;75.40;;;;;;5008224;28;20033;-74
2022/04/28 09:01:54;;;;;;;7.78;5.30;;;15.80;75.30;;;;;;5009250;28;20057;-75
2022/04/28 09:04:22;;;;;;;9.63;5.50;;;15.90;75.10;;;;;;4993818;28;20110;-76
2022/04/28 09:06:54;;;;;;;7.85;5.88;;;16.00;75.00;;;;;;5018870;28;20371;-74
2022/04/28 09:09:20;;;;;;;8.65;5.50;;;16.00;74.90;;;;;;5002912;28;20025;-74
2022/04/28 09:11:48;;;;;;;7.72;5.30;;;16.00;74.70;;;;;;5027487;28;20132;-74
2022/04/28 09:14:20;;;;;;;8.43;5.78;;;16.00;74.70;;;;;;5027102;28;20041;-72
2022/04/28 09:16:51;;;;;;;8.38;5.25;;;16.10;74.60;;;;;;5027003;28;20026;-74
2022/04/28 09:19:19;;;;;;;9.00;5.53;;;16.00;74.80;;;;;;5010567;28;20033;-74
2022/04/28 09:21:46;;;;;;;8.77;5.28;;;16.00;74.90;;;;;;4992094;28;20058;-74
2022/04/28 09:24:13;;;;;;;8.38;5.53;;;16.00;74.90;;;;;;5006891;28;20030;-74
2022/04/28 09:26:39;;;;;;;8.70;5.45;;;16.00;75.00;;;;;;5019656;28;20029;-75
2022/04/28 09:29:06;;;;;;;8.65;6.00;;;16.00;74.90;;;;;;5027958;28;20029;-75
2022/04/28 09:31:37;;;;;;;10.63;6.13;;;16.00;74.80;;;;;;5012542;28;20497;-72
2022/04/28 09:34:08;;;;;;;7.40;5.63;;;16.00;74.80;;;;;;5012479;28;20033;-76
2022/04/28 09:36:33;;;;;;;8.07;5.40;;;16.00;74.80;;;;;;5011770;28;20026;-74
2022/04/28 09:38:59;;;;;;;8.05;5.05;;;16.10;74.90;;;;;;5010786;28;20022;-75
2022/04/28 09:44:12;;;;;;;9.45;6.07;;;16.10;74.70;;;;;;5011753;28;20088;-75
2022/04/28 09:46:42;;;;;;;8.07;5.55;;;16.10;74.70;;;;;;5009911;28;20045;-74
2022/04/28 09:49:13;;;;;;;8.75;5.68;;;16.10;74.80;;;;;;5027691;28;20026;-75
2022/04/28 09:51:39;;;;;;;7.43;5.30;;;16.10;74.80;;;;;;5011999;28;20073;-75
2022/04/28 09:54:10;;;;;;;8.60;6.00;;;16.10;74.90;;;;;;5010628;28;20113;-72
2022/04/28 09:56:37;;;;;;;8.52;5.53;;;16.10;74.90;;;;;;5027388;28;20036;-74
2022/04/28 09:59:05;;;;;;;8.38;5.32;;;16.10;74.90;;;;;;5011668;28;20026;-73
2022/04/28 10:01:32;;;;;;;8.25;5.25;;;16.10;74.90;;;;;;5026729;28;20041;-74
2022/04/28 10:03:58;;;;;;;8.27;5.38;;;16.10;74.90;;;;;;5026699;28;20157;-75
2022/04/28 10:06:25;;;;;;;8.57;5.70;;;16.10;74.80;;;;;;5016730;28;20022;-73
2022/04/28 10:08:56;;;;;;;7.68;5.18;;;16.10;74.80;;;;;;5007337;28;20022;-74
2022/04/28 10:11:24;;;;;;;8.30;6.05;;;16.10;75.20;;;;;;5007300;28;20521;-75
2022/04/28 10:13:51;;;;;;;7.75;5.22;;;16.20;74.70;;;;;;5006499;28;20121;-74
2022/04/28 10:16:19;;;;;;;8.07;4.90;;;16.20;74.70;;;;;;5007315;28;20125;-73
2022/04/28 10:18:48;;;;;;;7.47;4.88;;;16.20;74.60;;;;;;5007125;28;20100;-74
2022/04/28 10:21:19;;;;;;;8.57;5.47;;;16.20;74.50;;;;;;4996181;28;20088;-74
2022/04/28 10:32:23;;;;;;;7.82;5.10;;;16.30;74.20;;;;;;5002259;28;20037;-73
2022/04/28 10:35:07;;;;;;;8.35;5.18;;;16.30;74.40;;;;;;5006646;28;20028;-74
2022/04/28 10:37:34;;;;;;;8.35;5.05;;;16.30;74.50;;;;;;5007233;28;20076;-74
2022/04/28 10:40:00;;;;;;;8.18;5.15;;;16.20;74.50;;;;;;5014050;28;20554;-75
2022/04/28 10:42:28;;;;;;;8.25;5.15;;;16.20;74.60;;;;;;5026821;28;20185;-75
2022/04/28 10:44:56;;;;;;;8.27;5.25;;;16.20;74.60;;;;;;5010815;28;20444;-74
2022/04/28 10:47:28;;;;;;;7.68;5.05;;;16.20;74.60;;;;;;5026691;28;20034;-75
2022/04/28 10:49:54;;;;;;;6.95;5.05;;;16.20;74.70;;;;;;5010021;28;20018;-74
2022/04/28 10:52:22;;;;;;;8.15;4.97;;;16.20;74.70;;;;;;5026354;28;20069;-74
2022/04/28 10:54:57;;;;;;;7.78;5.15;;;16.20;74.70;;;;;;5026807;28;20121;-75
2022/04/28 10:57:31;;;;;;;7.75;5.07;;;16.20;74.80;;;;;;5024691;28;20026;-73
2022/04/28 10:59:57;;;;;;;7.18;4.72;;;16.20;74.80;;;;;;5026367;28;20032;-74
2022/04/28 11:02:23;;;;;;;7.03;4.57;;;16.20;74.80;;;;;;5026147;28;20026;-75
2022/04/28 11:05:28;;;;;;;7.70;4.63;;;16.20;74.90;;;;;;5009352;28;20122;-75
2022/04/28 11:07:54;;;;;;;7.60;4.93;;;16.20;75.00;;;;;;5008169;28;20030;-72
2022/04/28 11:10:19;;;;;;;7.63;4.53;;;16.10;75.00;;;;;;5011096;28;20388;-75
2022/04/28 11:12:45;;;;;;;7.60;4.90;;;16.10;75.10;;;;;;5026052;28;20116;-74
2022/04/28 11:15:14;;;;;;;8.32;5.28;;;16.10;75.30;;;;;;5004974;28;20031;-74
2022/04/28 11:17:44;;;;;;;7.28;5.20;;;16.10;75.30;;;;;;5006828;28;20034;-76
2022/04/28 11:20:14;;;;;;;7.82;4.78;;;16.10;75.30;;;;;;5026814;28;20032;-75
2022/04/28 11:22:41;;;;;;;7.18;4.63;;;16.10;75.30;;;;;;5026217;28;20064;-76
2022/04/28 11:25:12;;;;;;;7.70;4.80;;;16.10;75.30;;;;;;5009656;28;20034;-75
2022/04/28 11:27:39;;;;;;;6.72;4.47;;;16.10;75.40;;;;;;5008270;28;20022;-75
2022/04/28 11:30:06;;;;;;;8.18;4.70;;;16.10;75.50;;;;;;5010075;28;20062;-75
2022/04/28 11:32:31;;;;;;;7.30;4.65;;;16.10;75.30;;;;;;5010156;28;20426;-78
2022/04/28 11:34:58;;;;;;;7.15;4.60;;;16.10;75.30;;;;;;5023312;28;20048;-74
2022/04/28 11:37:25;;;;;;;7.78;4.95;;;16.10;75.20;;;;;;5011184;28;20030;-75
2022/04/28 11:39:53;;;;;;;7.25;4.70;;;16.20;75.10;;;;;;5011874;28;20482;-75
2022/04/28 11:42:19;;;;;;;8.65;4.80;;;16.20;74.90;;;;;;5002045;28;20084;-74
2022/04/28 11:44:51;;;;;;;7.45;4.70;;;16.20;74.80;;;;;;5009774;28;20069;-74
2022/04/28 11:47:17;;;;;;;;;;;16.20;75.00;;;;;;5020717;28;20030;-75
2022/04/28 11:49:42;;;;;;;8.15;4.70;;;16.10;75.10;;;;;;5011330;28;19992;-75
2022/04/28 11:52:21;;;;;;;7.35;4.75;;;16.10;75.30;;;;;;5013338;28;20080;-71
2022/04/28 11:55:08;;;;;;;6.28;4.20;;;16.10;75.40;;;;;;5014207;28;20030;-74
2022/04/28 11:57:39;;;;;;;7.43;4.82;;;16.10;75.50;;;;;;5013226;28;20025;-75
2022/04/28 12:00:07;;;;;;;7.85;5.32;;;16.10;75.50;;;;;;5015825;28;20144;-81
2022/04/28 12:02:35;;;;;;;7.35;5.07;;;16.00;75.50;;;;;;5015896;28;20041;-81
2022/04/28 12:05:25;;;;;;;7.47;4.47;;;16.00;75.60;;;;;;5015220;28;20116;-84
2022/04/28 12:07:51;;;;;;;7.18;4.70;;;16.00;75.60;;;;;;5030830;28;20045;-82
2022/04/28 12:16:05;;;;;;;6.88;4.30;;;16.00;75.70;;;;;;5018595;28;20524;-83
2022/04/28 12:21:24;;;;;;;7.10;4.50;;;16.00;75.70;;;;;;5015429;28;20073;-80
2022/04/28 12:23:53;;;;;;;8.32;5.10;;;16.00;75.70;;;;;;5029560;28;20022;-79
2022/04/28 12:26:20;;;;;;;6.75;4.60;;;16.00;75.80;;;;;;5014409;28;20022;-77
2022/04/28 12:28:46;;;;;;;7.45;4.70;;;16.00;75.80;;;;;;5029967;28;20030;-80
2022/04/28 12:31:15;;;;;;;7.22;4.60;;;16.00;75.80;;;;;;5029716;28;20022;-78
2022/04/28 12:33:45;;;;;;;6.68;4.43;;;16.00;75.80;;;;;;5029553;28;20025;-78
2022/04/28 12:36:14;;;;;;;7.55;5.10;;;16.00;75.80;;;;;;5014616;28;20168;-79
2022/04/28 12:38:45;;;;;;;6.78;4.43;;;16.00;75.90;;;;;;5029657;28;20060;-76
2022/04/28 12:41:16;;;;;;;7.35;4.47;;;16.00;75.90;;;;;;5014464;28;20050;-78
2022/04/28 12:43:48;;;;;;;7.07;4.68;;;16.00;75.70;;;;;;5029144;28;20049;-78
2022/04/28 12:46:34;;;;;;;6.60;4.60;;;16.00;75.60;;;;;;5029196;28;20392;-78
2022/04/28 12:49:06;;;;;;;7.20;4.50;;;16.10;75.50;;;;;;5012466;28;20030;-76
2022/04/28 12:51:44;;;;;;;7.03;4.53;;;16.10;75.40;;;;;;5013309;28;20512;-78
2022/04/28 12:54:23;;;;;;;7.43;4.50;;;16.10;75.30;;;;;;5029216;28;20060;-76
2022/04/28 12:57:03;;;;;;;7.68;4.90;;;16.10;75.30;;;;;;5029338;28;20113;-77
2022/04/28 12:59:38;;;;;;;8.23;4.63;;;16.10;75.40;;;;;;5029143;28;20026;-78
2022/04/28 13:02:05;;;;;;;7.10;4.40;;;16.00;75.40;;;;;;5014087;28;20041;-78
2022/04/28 13:04:35;;;;;;;6.80;4.57;;;16.00;75.60;;;;;;5028684;28;20030;-75
2022/04/28 13:07:01;;;;;;;8.50;5.00;;;15.90;75.80;;;;;;5029010;28;20448;-76
2022/04/28 13:09:29;;;;;;;6.38;4.30;;;15.90;76.00;;;;;;5029136;28;20026;-77
2022/04/28 13:11:55;;;;;;;7.28;4.85;;;15.90;76.10;;;;;;5028843;28;20021;-79
2022/04/28 13:14:22;;;;;;;6.70;4.40;;;15.90;76.30;;;;;;5013373;28;20393;-77
2022/04/28 13:16:50;;;;;;;6.80;4.57;;;15.90;76.40;;;;;;5028567;28;20037;-76
2022/04/28 13:19:16;;;;;;;6.80;4.38;;;15.80;76.40;;;;;;5030241;28;20481;-80
2022/04/28 13:21:41;;;;;;;7.20;4.85;;;15.80;76.40;;;;;;5013788;28;20037;-79
2022/04/28 13:24:08;;;;;;;7.22;4.88;;;15.80;77.00;;;;;;5014438;28;20026;-79
2022/04/28 13:26:34;;;;;;;6.95;4.57;;;15.80;76.50;;;;;;5029668;28;20499;-79
2022/04/28 13:29:01;;;;;;;6.63;4.63;;;15.80;76.50;;;;;;5014551;28;20354;-77